Historique des mesures à Cassis (13260), France
Quotidien Résumé Fevrier 8, 2018 Unités:  US    Métrique   Métrique/US
« Précédent (Jour)
Suivant (Jour) »
Quotidien Hebdomadaire Mensuel Annuel Période au choix
  Maximum: Minimum: Moyenne:
Température: 32 °F 36.3 °F 39.7 °F
Point de rosée: 32 °F 25.3 °F 28.9 °F
Humidité: Humidity % 59 % 61 %
Vitesse du vent: WindSpeedKMH mph 0.0 mph 9.3 mph
Rafales: WindSpeedGustKMH mph - -
Vent:- - West
Pression: 0 in 29.8 in -
Précipitations: 0.0 in    
Historical Graphs
 
 
Mesures pour : Fevrier 8, 2018
Heure Temperature Point de rosée Pression Vent Vitesse du vent Rafales Humidité Pluie (par heure)
32 °F 32 °F 0 in Calm     Humidity % HourlyPrecipMM in
00:12 37.2 °F 25.3 °F 29.8 in NNW 16.3 mph 19.1 mph 62 % 0.0 in
01:12 37.2 °F 25.9 °F 29.8 in NNW 11.1 mph 17.2 mph 63 % 0.0 in
02:12 37.2 °F 25.3 °F 29.8 in West 13.4 mph 22.7 mph 62 % 0.0 in
03:12 37.2 °F 25.9 °F 29.8 in WNW 13.0 mph 34.1 mph 63 % 0.0 in
04:12 36.9 °F 26.2 °F 29.8 in WNW 21.9 mph 21.9 mph 65 % 0.0 in
05:12 36.7 °F 26.4 °F 29.8 in NW 12.2 mph 24.8 mph 66 % 0.0 in
06:12 36.7 °F 26.8 °F 29.9 in WNW 4.0 mph 7.2 mph 67 % 0.0 in
07:12 36.3 °F 26.8 °F 29.9 in WNW 13.4 mph 13.4 mph 68 % 0.0 in
08:12 36.5 °F 27.3 °F 29.9 in WNW 7.2 mph 7.6 mph 69 % 0.0 in
09:12 37.2 °F 28 °F 29.9 in West 6.1 mph 6.8 mph 69 % 0.0 in
10:12 38.3 °F 28.9 °F 29.9 in NNW 21.6 mph 21.6 mph 69 % 0.0 in
11:12 39.9 °F 29.8 °F 29.9 in WNW 14.0 mph 14.0 mph 67 % 0.0 in
12:12 41.7 °F 30.4 °F 29.9 in NW 6.1 mph 9.3 mph 64 % 0.0 in
13:12 43.3 °F 31.5 °F 29.9 in NW 4.0 mph 18.0 mph 63 % 0.0 in
14:12 44.6 °F 31.6 °F 29.9 in WNW 24.1 mph 24.1 mph 60 % 0.0 in
15:12 46 °F 32.5 °F 29.9 in NNW 14.3 mph 26.2 mph 59 % 0.0 in
16:12 46 °F 32.5 °F 29.9 in North 3.5 mph 19.1 mph 59 % 0.0 in
17:12 45 °F 32.2 °F 29.9 in North 7.6 mph 7.9 mph 60 % 0.0 in
18:12 43 °F 30.7 °F 29.9 in NNW 5.0 mph 9.0 mph 62 % 0.0 in
19:12 42.1 °F 30 °F 29.9 in NNW 7.2 mph 12.2 mph 62 % 0.0 in
20:12 42.4 °F 29.1 °F 29.9 in West 3.2 mph 6.1 mph 59 % 0.0 in
21:12 41.2 °F 29.8 °F 30 in SE 2.1 mph 2.1 mph 64 % 0.0 in
22:12 40.6 °F 29.8 °F 30 in Calm     65 % 0.0 in
23:12 39 °F 28.9 °F 29.9 in Calm     67 % 0.0 in
Observations météo à CASSIS
WU-History script by Weather Underground - 1 mb